createdAt,value
2018-08-18T00:00:28.526Z,13.20
2018-08-18T00:01:28.503Z,13.15
2018-08-18T00:02:28.484Z,13.15
2018-08-18T00:03:28.459Z,13.25
2018-08-18T00:04:28.438Z,13.22
2018-08-18T00:05:28.418Z,13.19
2018-08-18T00:06:28.391Z,13.19
2018-08-18T00:07:28.369Z,13.19
2018-08-18T00:08:28.346Z,13.15
2018-08-18T00:09:28.334Z,13.11
2018-08-18T00:10:28.320Z,13.10
2018-08-18T00:11:28.279Z,13.04
2018-08-18T00:12:28.259Z,13.05
2018-08-18T00:13:28.235Z,13.05
2018-08-18T00:14:28.213Z,13.00
2018-08-18T00:15:28.189Z,12.97
2018-08-18T00:16:28.168Z,13.04
2018-08-18T00:17:28.143Z,12.92
2018-08-18T00:18:28.120Z,12.83
2018-08-18T00:19:28.099Z,12.95
2018-08-18T00:20:28.075Z,12.87
2018-08-18T00:21:28.053Z,12.86
2018-08-18T00:22:28.031Z,12.90
2018-08-18T00:23:28.007Z,13.04
2018-08-18T00:24:27.984Z,13.03
2018-08-18T00:25:27.961Z,12.89
2018-08-18T00:26:27.940Z,12.78
2018-08-18T00:27:27.915Z,12.87
2018-08-18T00:28:27.892Z,12.89
2018-08-18T00:29:27.870Z,12.86
2018-08-18T00:30:27.848Z,12.85
2018-08-18T00:31:27.825Z,12.83
2018-08-18T00:32:27.802Z,13.03
2018-08-18T00:33:27.780Z,13.01
2018-08-18T00:34:27.757Z,12.93
2018-08-18T00:35:27.733Z,13.04
2018-08-18T00:36:27.710Z,12.87
2018-08-18T00:37:27.688Z,12.89
2018-08-18T00:38:27.665Z,13.04
2018-08-18T00:39:27.642Z,12.87
2018-08-18T00:40:27.618Z,12.97
2018-08-18T00:41:27.597Z,12.92
2018-08-18T00:42:27.579Z,12.87
2018-08-18T00:43:27.555Z,12.90
2018-08-18T00:44:27.526Z,12.90
2018-08-18T00:45:27.503Z,13.00
2018-08-18T00:46:27.483Z,12.87
2018-08-18T00:47:27.460Z,13.01
2018-08-18T00:48:27.439Z,12.89
2018-08-18T00:49:27.411Z,12.89
2018-08-18T00:50:27.390Z,12.83
2018-08-18T00:51:27.367Z,12.85
2018-08-18T00:52:27.342Z,12.82
2018-08-18T00:53:27.320Z,12.68
2018-08-18T00:54:27.298Z,12.67
2018-08-18T00:55:27.281Z,12.59
2018-08-18T00:56:27.252Z,12.52
2018-08-18T00:57:27.228Z,12.46
2018-08-18T00:58:27.210Z,12.46
2018-08-18T00:59:27.182Z,12.47
2018-08-18T01:00:27.159Z,12.47
2018-08-18T01:01:27.137Z,12.46
2018-08-18T01:02:27.113Z,12.49
2018-08-18T01:03:27.092Z,12.46
2018-08-18T01:04:27.068Z,12.49
2018-08-18T01:05:27.044Z,12.47
2018-08-18T01:06:27.024Z,12.42
2018-08-18T01:07:27.002Z,12.47
2018-08-18T01:08:26.976Z,12.49
2018-08-18T01:09:26.953Z,12.54
2018-08-18T01:10:26.929Z,12.54
2018-08-18T01:11:26.990Z,12.57
2018-08-18T01:12:27.012Z,12.64
2018-08-18T01:13:26.862Z,12.65
2018-08-18T01:14:27.041Z,12.62
2018-08-18T01:15:26.832Z,12.64
2018-08-18T01:16:26.793Z,12.68
2018-08-18T01:17:26.771Z,12.65
2018-08-18T01:18:26.747Z,12.64
2018-08-18T01:19:26.725Z,12.65
2018-08-18T01:20:26.701Z,12.68
2018-08-18T01:21:26.704Z,12.74
2018-08-18T01:22:26.659Z,12.71
2018-08-18T01:23:26.635Z,12.70
2018-08-18T01:24:26.611Z,12.70
2018-08-18T01:25:26.589Z,12.68
2018-08-18T01:26:26.564Z,12.74
2018-08-18T01:27:26.543Z,12.75
2018-08-18T01:28:26.520Z,12.74
2018-08-18T01:29:26.498Z,12.75
2018-08-18T01:30:26.475Z,12.75
2018-08-18T01:31:26.453Z,12.74
2018-08-18T01:32:26.428Z,12.72
2018-08-18T01:33:26.406Z,12.79
2018-08-18T01:34:26.396Z,12.86
2018-08-18T01:35:26.361Z,12.83
2018-08-18T01:36:26.337Z,12.85
2018-08-18T01:37:26.316Z,12.89
2018-08-18T01:38:26.305Z,12.89
2018-08-18T01:39:26.270Z,12.89
2018-08-18T01:40:26.246Z,12.89
2018-08-18T01:41:26.224Z,12.89
2018-08-18T01:42:26.202Z,12.83
2018-08-18T01:43:26.180Z,12.82
2018-08-18T01:44:26.157Z,12.86
2018-08-18T01:45:26.135Z,12.89
2018-08-18T01:46:26.111Z,12.90
2018-08-18T01:47:26.089Z,12.85
2018-08-18T01:48:26.067Z,12.72
2018-08-18T01:49:26.043Z,12.86
2018-08-18T01:50:26.023Z,12.93
2018-08-18T01:51:26.000Z,12.89
2018-08-18T01:52:25.977Z,12.85
2018-08-18T01:53:25.954Z,12.92
2018-08-18T01:54:25.932Z,12.89
2018-08-18T01:55:25.907Z,12.86
2018-08-18T01:56:25.886Z,12.89
2018-08-18T01:57:25.864Z,12.97
2018-08-18T01:58:25.842Z,13.01
2018-08-18T01:59:25.820Z,12.93
2018-08-18T02:00:25.797Z,13.00
2018-08-18T02:01:25.773Z,12.97
2018-08-18T02:02:25.751Z,13.00
2018-08-18T02:03:25.730Z,13.00
2018-08-18T02:04:25.706Z,13.10
2018-08-18T02:05:25.685Z,13.05
2018-08-18T02:06:25.661Z,13.07
2018-08-18T02:07:25.639Z,13.03
2018-08-18T02:08:25.616Z,13.08
2018-08-18T02:09:25.594Z,13.11
2018-08-18T02:10:25.572Z,13.19
2018-08-18T02:11:25.554Z,13.20
2018-08-18T02:12:25.527Z,13.15
2018-08-18T02:13:25.504Z,13.22
2018-08-18T02:14:25.482Z,13.20
2018-08-18T02:15:25.461Z,13.23
2018-08-18T02:16:25.437Z,13.25
2018-08-18T02:17:25.416Z,13.30
2018-08-18T02:18:25.395Z,13.28
2018-08-18T02:19:25.373Z,13.36
2018-08-18T02:20:25.348Z,13.36
2018-08-18T02:21:25.327Z,13.33
2018-08-18T02:22:25.306Z,13.41
2018-08-18T02:23:25.284Z,13.38
2018-08-18T02:24:25.260Z,13.45
2018-08-18T02:25:25.238Z,13.38
2018-08-18T02:26:25.217Z,13.39
2018-08-18T02:27:25.201Z,13.48
2018-08-18T02:28:25.171Z,13.42
2018-08-18T02:29:25.150Z,13.45
2018-08-18T02:30:25.128Z,13.51
2018-08-18T02:31:25.107Z,13.49
2018-08-18T02:32:25.085Z,13.51
2018-08-18T02:33:25.061Z,13.57
2018-08-18T02:34:25.040Z,13.57
2018-08-18T02:35:25.018Z,13.49
2018-08-18T02:36:24.994Z,13.54
2018-08-18T02:37:24.974Z,13.52
2018-08-18T02:38:24.952Z,13.55
2018-08-18T02:39:24.931Z,13.55
2018-08-18T02:40:24.907Z,13.52
2018-08-18T02:41:24.885Z,13.51
2018-08-18T02:42:24.863Z,13.51
2018-08-18T02:43:24.842Z,13.54
2018-08-18T02:44:24.820Z,13.59
2018-08-18T02:45:24.796Z,13.57
2018-08-18T02:46:24.777Z,13.54
2018-08-18T02:47:24.755Z,13.54
2018-08-18T02:48:24.732Z,13.54
2018-08-18T02:49:24.709Z,13.60
2018-08-18T02:50:24.688Z,13.57
2018-08-18T02:51:24.668Z,13.62
2018-08-18T02:52:24.644Z,13.63
2018-08-18T02:53:24.622Z,13.71
2018-08-18T02:54:24.601Z,13.67
2018-08-18T02:55:24.580Z,13.70
2018-08-18T02:56:24.557Z,13.69
2018-08-18T02:57:24.534Z,13.69
2018-08-18T02:58:24.513Z,13.66
2018-08-18T02:59:24.492Z,13.70
2018-08-18T03:00:24.469Z,13.69
2018-08-18T03:01:24.448Z,13.71
2018-08-18T03:02:24.425Z,13.75
2018-08-18T03:03:24.403Z,13.71
2018-08-18T03:04:24.381Z,13.63
2018-08-18T03:05:24.360Z,13.59
2018-08-18T03:06:24.339Z,13.57
2018-08-18T03:07:24.315Z,13.59
2018-08-18T03:08:24.292Z,13.57
2018-08-18T03:09:24.279Z,13.51
2018-08-18T03:10:24.252Z,13.49
2018-08-18T03:11:24.228Z,13.39
2018-08-18T03:12:24.205Z,13.30
2018-08-18T03:13:24.186Z,13.19
2018-08-18T03:14:24.161Z,13.14
2018-08-18T03:15:24.138Z,13.04
2018-08-18T03:16:24.122Z,13.00
2018-08-18T03:17:24.095Z,12.92
2018-08-18T03:18:24.071Z,12.85
2018-08-18T03:19:24.050Z,12.89
2018-08-18T03:20:24.028Z,12.82
2018-08-18T03:21:24.006Z,12.78
2018-08-18T03:22:23.982Z,12.82
2018-08-18T03:23:23.960Z,12.77
2018-08-18T03:24:23.938Z,12.71
2018-08-18T03:25:23.914Z,12.64
2018-08-18T03:26:23.895Z,12.70
2018-08-18T03:27:23.871Z,12.57
2018-08-18T03:28:23.849Z,12.52
2018-08-18T03:29:23.825Z,12.49
2018-08-18T03:30:23.805Z,12.46
2018-08-18T03:31:23.781Z,12.47
2018-08-18T03:32:23.758Z,12.42
2018-08-18T03:33:23.735Z,12.28
2018-08-18T03:34:23.713Z,12.32
2018-08-18T03:35:23.690Z,12.24
2018-08-18T03:36:23.667Z,12.20
2018-08-18T03:37:23.646Z,12.23
2018-08-18T03:38:23.621Z,12.27
2018-08-18T03:39:23.597Z,12.20
2018-08-18T03:40:23.576Z,12.16
2018-08-18T03:41:23.553Z,12.20
2018-08-18T03:42:23.532Z,12.20
2018-08-18T03:43:23.507Z,12.10
2018-08-18T03:44:23.484Z,12.13
2018-08-18T03:45:23.460Z,12.10
2018-08-18T03:46:23.439Z,12.09
2018-08-18T03:47:23.415Z,12.02
2018-08-18T03:48:23.391Z,12.01
2018-08-18T03:49:23.369Z,11.91
2018-08-18T03:50:23.345Z,11.96
2018-08-18T03:51:23.323Z,11.90
2018-08-18T03:52:23.302Z,11.75
2018-08-18T03:53:23.276Z,11.64
2018-08-18T03:54:23.256Z,11.72
2018-08-18T03:55:23.230Z,11.67
2018-08-18T03:56:23.207Z,11.62
2018-08-18T03:57:23.182Z,11.69
2018-08-18T03:58:23.161Z,11.60
2018-08-18T03:59:23.137Z,11.65
2018-08-18T04:00:23.113Z,11.67
2018-08-18T04:01:23.161Z,11.73
2018-08-18T04:02:23.068Z,11.69
2018-08-18T04:03:23.045Z,11.69
2018-08-18T04:04:23.019Z,11.54
2018-08-18T04:05:22.997Z,11.58
2018-08-18T04:06:22.973Z,11.62
2018-08-18T04:07:22.949Z,11.58
2018-08-18T04:08:22.934Z,11.51
2018-08-18T04:09:22.984Z,11.54
2018-08-18T04:10:22.881Z,11.58
2018-08-18T04:11:22.856Z,11.58
2018-08-18T04:12:22.832Z,11.61
2018-08-18T04:13:22.810Z,11.55
2018-08-18T04:14:22.788Z,11.61
2018-08-18T04:15:22.764Z,11.58
2018-08-18T04:16:22.739Z,11.72
2018-08-18T04:17:22.716Z,11.61
2018-08-18T04:18:22.693Z,11.58
2018-08-18T04:19:22.670Z,11.64
2018-08-18T04:20:22.646Z,11.52
2018-08-18T04:21:22.623Z,11.54
2018-08-18T04:22:22.598Z,11.57
2018-08-18T04:23:22.576Z,11.44
2018-08-18T04:24:22.551Z,11.52
2018-08-18T04:25:22.586Z,11.51
2018-08-18T04:26:22.504Z,11.55
2018-08-18T04:27:22.481Z,11.57
2018-08-18T04:28:22.457Z,11.52
2018-08-18T04:29:22.434Z,11.55
2018-08-18T04:30:22.411Z,11.51
2018-08-18T04:31:22.387Z,11.58
2018-08-18T04:32:22.361Z,11.54
2018-08-18T04:33:22.339Z,11.54
2018-08-18T04:34:22.316Z,11.47
2018-08-18T04:35:22.305Z,11.42
2018-08-18T04:36:22.268Z,11.44
2018-08-18T04:37:22.244Z,11.37
2018-08-18T04:38:22.221Z,11.35
2018-08-18T04:39:22.199Z,11.28
2018-08-18T04:40:22.174Z,11.33
2018-08-18T04:41:22.151Z,11.36
2018-08-18T04:42:22.128Z,11.39
2018-08-18T04:43:22.105Z,11.49
2018-08-18T04:44:22.096Z,11.62
2018-08-18T04:45:22.057Z,11.61
2018-08-18T04:46:22.034Z,11.76
2018-08-18T04:47:22.010Z,11.76
2018-08-18T04:48:21.986Z,11.65
2018-08-18T04:49:21.964Z,11.69
2018-08-18T04:50:21.994Z,11.80
2018-08-18T04:51:21.917Z,11.72
2018-08-18T04:52:21.895Z,11.73
2018-08-18T04:53:21.868Z,11.79
2018-08-18T04:54:21.850Z,11.69
2018-08-18T04:55:21.826Z,11.70
2018-08-18T04:56:21.799Z,11.86
2018-08-18T04:57:21.777Z,11.83
2018-08-18T04:58:21.753Z,11.90
2018-08-18T04:59:21.788Z,11.95
2018-08-18T05:00:21.705Z,11.98
2018-08-18T05:01:21.682Z,12.01
2018-08-18T05:02:21.659Z,12.07
2018-08-18T05:03:21.665Z,12.10
2018-08-18T05:04:21.611Z,12.14
2018-08-18T05:05:21.598Z,12.14
2018-08-18T05:06:21.566Z,12.20
2018-08-18T05:07:21.542Z,12.19
2018-08-18T05:08:21.518Z,12.17
2018-08-18T05:09:21.500Z,12.32
2018-08-18T05:10:21.474Z,12.35
2018-08-18T05:11:21.449Z,12.32
2018-08-18T05:12:21.425Z,12.28
2018-08-18T05:13:21.401Z,12.31
2018-08-18T05:14:21.377Z,12.34
2018-08-18T05:15:21.355Z,12.23
2018-08-18T05:16:21.333Z,12.50
2018-08-18T05:17:21.309Z,12.54
2018-08-18T05:18:21.287Z,12.77
2018-08-18T05:19:21.368Z,13.08
2018-08-18T05:20:21.239Z,13.66
2018-08-18T05:21:21.217Z,14.06
2018-08-18T05:22:21.195Z,14.62
2018-08-18T05:23:21.171Z,14.81
2018-08-18T05:24:21.149Z,14.95
2018-08-18T05:25:21.126Z,14.89
2018-08-18T05:26:21.104Z,14.75
2018-08-18T05:27:21.081Z,14.68
2018-08-18T05:28:21.060Z,14.64
2018-08-18T05:29:21.037Z,14.64
2018-08-18T05:30:21.014Z,14.72
2018-08-18T05:31:20.992Z,15.06
2018-08-18T05:32:20.969Z,15.46
2018-08-18T05:33:20.947Z,16.21
2018-08-18T05:34:20.931Z,16.94
2018-08-18T05:35:20.902Z,17.08
2018-08-18T05:36:20.894Z,17.30
2018-08-18T05:37:20.860Z,17.81
2018-08-18T05:38:20.837Z,18.14
2018-08-18T05:39:20.817Z,18.65
2018-08-18T05:40:20.795Z,19.00
2018-08-18T05:41:20.774Z,19.29
2018-08-18T05:42:20.756Z,19.78
2018-08-18T05:43:20.734Z,20.32
2018-08-18T05:44:20.713Z,20.61
2018-08-18T05:45:20.693Z,21.06
2018-08-18T05:46:20.674Z,21.35
2018-08-18T05:47:20.653Z,21.71
2018-08-18T05:48:20.636Z,21.77
2018-08-18T05:49:20.615Z,22.14
2018-08-18T05:50:20.597Z,22.39
2018-08-18T05:51:20.577Z,22.35
2018-08-18T05:52:20.561Z,22.73
2018-08-18T05:53:20.542Z,22.90
2018-08-18T05:54:20.525Z,22.92
2018-08-18T05:55:20.509Z,22.95
2018-08-18T05:56:20.491Z,23.19
2018-08-18T05:57:20.475Z,23.51
2018-08-18T05:58:20.455Z,23.58
2018-08-18T05:59:20.437Z,23.79
2018-08-18T06:00:20.421Z,23.95
2018-08-18T06:01:20.405Z,24.21
2018-08-18T06:02:20.390Z,24.43
2018-08-18T06:03:20.374Z,24.73
2018-08-18T06:04:20.356Z,24.93
2018-08-18T06:05:20.346Z,25.10
2018-08-18T06:06:20.327Z,25.50
2018-08-18T06:07:20.311Z,25.73
2018-08-18T06:08:20.295Z,25.82
2018-08-18T06:09:20.281Z,25.72
2018-08-18T06:10:20.266Z,25.55
2018-08-18T06:11:20.251Z,25.54
2018-08-18T06:12:20.235Z,25.60
2018-08-18T06:13:20.221Z,25.64
2018-08-18T06:14:20.207Z,25.28
2018-08-18T06:15:20.193Z,24.49
2018-08-18T06:16:20.179Z,23.84
2018-08-18T06:17:20.164Z,23.54
2018-08-18T06:18:20.149Z,23.39
2018-08-18T06:19:20.136Z,23.66
2018-08-18T06:20:20.119Z,24.15
2018-08-18T06:21:20.104Z,24.64
2018-08-18T06:22:20.091Z,25.28
2018-08-18T06:23:20.076Z,25.73
2018-08-18T06:24:20.062Z,25.97
2018-08-18T06:25:20.053Z,25.85
2018-08-18T06:26:20.092Z,25.75
2018-08-18T06:27:20.019Z,25.88
2018-08-18T06:28:20.005Z,26.12
2018-08-18T06:29:19.990Z,26.55
2018-08-18T06:30:19.978Z,26.81
2018-08-18T06:31:19.963Z,27.04
2018-08-18T06:32:19.949Z,27.49
2018-08-18T06:33:19.934Z,27.96
2018-08-18T06:34:19.921Z,27.99
2018-08-18T06:35:19.912Z,28.04
2018-08-18T06:36:19.895Z,28.19
2018-08-18T06:37:19.883Z,28.31
2018-08-18T06:38:19.869Z,28.46
2018-08-18T06:39:19.857Z,28.24
2018-08-18T06:40:19.843Z,28.06
2018-08-18T06:41:19.887Z,27.96
2018-08-18T06:42:19.819Z,28.00
2018-08-18T06:43:19.806Z,28.00
2018-08-18T06:44:19.793Z,28.07
2018-08-18T06:45:19.780Z,27.82
2018-08-18T06:46:19.768Z,27.96
2018-08-18T06:47:19.756Z,28.25
2018-08-18T06:48:19.742Z,28.15
2018-08-18T06:49:19.732Z,28.34
2018-08-18T06:50:19.721Z,28.24
2018-08-18T06:51:19.705Z,28.29
2018-08-18T06:52:19.693Z,28.25
2018-08-18T06:53:19.682Z,28.37
2018-08-18T06:54:19.704Z,28.64
2018-08-18T06:55:19.659Z,28.73
2018-08-18T06:56:19.646Z,28.49
2018-08-18T06:57:19.635Z,28.81
2018-08-18T06:58:19.623Z,28.83
2018-08-18T06:59:19.611Z,28.92
2018-08-18T07:00:19.599Z,29.00
2018-08-18T07:01:19.587Z,29.36
2018-08-18T07:02:19.576Z,29.26
2018-08-18T07:03:19.565Z,29.55
2018-08-18T07:04:19.552Z,29.36
2018-08-18T07:05:19.541Z,29.31
2018-08-18T07:06:19.560Z,29.41
2018-08-18T07:07:19.519Z,29.51
2018-08-18T07:08:19.507Z,29.74
2018-08-18T07:09:19.494Z,29.89
2018-08-18T07:10:19.484Z,30.11
2018-08-18T07:11:19.486Z,30.34
2018-08-18T07:12:19.460Z,30.37
2018-08-18T07:13:19.453Z,30.53
2018-08-18T07:14:19.439Z,30.88
2018-08-18T07:15:19.425Z,30.91
2018-08-18T07:16:19.416Z,30.82
2018-08-18T07:17:19.403Z,30.86
2018-08-18T07:18:19.391Z,31.02
2018-08-18T07:19:19.387Z,31.17
2018-08-18T07:20:19.368Z,31.09
2018-08-18T07:21:19.355Z,31.14
2018-08-18T07:22:19.346Z,30.65
2018-08-18T07:23:19.334Z,30.72
2018-08-18T07:24:19.324Z,30.20
2018-08-18T07:25:19.318Z,30.23
2018-08-18T07:26:19.301Z,30.53
2018-08-18T07:27:19.290Z,30.83
2018-08-18T07:28:19.327Z,31.10
2018-08-18T07:29:19.269Z,30.84
2018-08-18T07:30:19.258Z,31.10
2018-08-18T07:31:19.246Z,31.09
2018-08-18T07:32:19.235Z,30.94
2018-08-18T07:33:19.226Z,31.26
2018-08-18T07:34:19.215Z,31.54
2018-08-18T07:35:19.204Z,31.65
2018-08-18T07:36:19.191Z,31.65
2018-08-18T07:37:19.192Z,32.00
2018-08-18T07:38:19.171Z,32.01
2018-08-18T07:39:19.161Z,31.51
2018-08-18T07:40:19.150Z,31.06
2018-08-18T07:41:19.140Z,31.29
2018-08-18T07:42:19.130Z,31.39
2018-08-18T07:43:19.119Z,31.48
2018-08-18T07:44:19.113Z,31.53
2018-08-18T07:45:19.097Z,31.72
2018-08-18T07:46:19.138Z,31.86
2018-08-18T07:47:19.078Z,31.69
2018-08-18T07:48:19.066Z,31.36
2018-08-18T07:49:19.055Z,31.66
2018-08-18T07:50:19.071Z,32.06
2018-08-18T07:51:19.034Z,31.96
2018-08-18T07:52:19.024Z,32.13
2018-08-18T07:53:19.112Z,32.15
2018-08-18T07:54:19.004Z,32.10
2018-08-18T07:55:18.992Z,32.21
2018-08-18T07:56:18.988Z,32.22
2018-08-18T07:57:18.973Z,32.10
2018-08-18T07:58:18.961Z,32.26
2018-08-18T07:59:18.950Z,32.33
2018-08-18T08:00:18.940Z,32.10
2018-08-18T08:01:18.976Z,32.18
2018-08-18T08:02:18.920Z,31.70
2018-08-18T08:03:18.914Z,31.56
2018-08-18T08:04:18.899Z,31.12
2018-08-18T08:05:18.889Z,29.78
2018-08-18T08:06:18.878Z,29.58
2018-08-18T08:07:18.868Z,29.64
2018-08-18T08:08:18.859Z,29.57
2018-08-18T08:09:18.846Z,29.48
2018-08-18T08:10:18.838Z,29.53
2018-08-18T08:11:18.828Z,29.83
2018-08-18T08:12:18.812Z,29.98
2018-08-18T08:13:18.804Z,29.92
2018-08-18T08:14:18.791Z,29.53
2018-08-18T08:15:18.780Z,29.70
2018-08-18T08:16:18.767Z,29.95
2018-08-18T08:17:18.757Z,30.22
2018-08-18T08:18:18.760Z,29.94
2018-08-18T08:19:18.739Z,30.26
2018-08-18T08:20:18.721Z,30.79
2018-08-18T08:21:18.712Z,30.42
2018-08-18T08:22:18.699Z,29.71
2018-08-18T08:23:18.688Z,30.00
2018-08-18T08:24:18.675Z,30.11
2018-08-18T08:25:18.665Z,29.53
2018-08-18T08:26:18.653Z,29.19
2018-08-18T08:27:18.642Z,29.06
2018-08-18T08:28:18.636Z,29.23
2018-08-18T08:29:18.617Z,29.05
2018-08-18T08:30:18.607Z,29.19
2018-08-18T08:31:18.596Z,29.00
2018-08-18T08:32:18.584Z,28.90
2018-08-18T08:33:18.573Z,29.68
2018-08-18T08:34:18.568Z,29.78
2018-08-18T08:35:18.554Z,30.00
2018-08-18T08:36:18.539Z,29.65
2018-08-18T08:37:18.527Z,29.41
2018-08-18T08:38:18.520Z,29.70
2018-08-18T08:39:18.507Z,30.47
2018-08-18T08:40:18.496Z,30.61
2018-08-18T08:41:18.483Z,29.92
2018-08-18T08:42:18.473Z,30.04
2018-08-18T08:43:18.487Z,29.26
2018-08-18T08:44:18.454Z,29.41
2018-08-18T08:45:18.441Z,29.36
2018-08-18T08:46:18.430Z,30.01
2018-08-18T08:47:18.419Z,30.42
2018-08-18T08:48:18.408Z,30.64
2018-08-18T08:49:18.398Z,30.69
2018-08-18T08:50:18.388Z,31.01
2018-08-18T08:51:18.377Z,31.26
2018-08-18T08:52:18.365Z,31.41
2018-08-18T08:53:18.354Z,30.60
2018-08-18T08:54:18.345Z,29.48
2018-08-18T08:55:18.335Z,28.98
2018-08-18T08:56:18.323Z,29.65
2018-08-18T08:57:18.313Z,30.20
2018-08-18T08:58:18.304Z,30.57
2018-08-18T08:59:18.294Z,31.06
2018-08-18T09:00:18.283Z,31.50
2018-08-18T09:01:18.271Z,31.39
2018-08-18T09:02:18.262Z,30.67
2018-08-18T09:03:18.252Z,30.88
2018-08-18T09:04:18.242Z,30.88
2018-08-18T09:05:18.231Z,30.83
2018-08-18T09:06:18.221Z,30.17
2018-08-18T09:07:18.211Z,29.83
2018-08-18T09:08:18.200Z,29.00
2018-08-18T09:09:18.194Z,28.17
2018-08-18T09:10:18.211Z,27.57
2018-08-18T09:11:18.169Z,27.66
2018-08-18T09:12:18.158Z,28.12
2018-08-18T09:13:18.147Z,29.04
2018-08-18T09:14:18.135Z,29.09
2018-08-18T09:15:18.126Z,29.30
2018-08-18T09:16:18.113Z,29.73
2018-08-18T09:17:18.103Z,30.45
2018-08-18T09:18:18.094Z,30.91
2018-08-18T09:19:18.081Z,31.14
2018-08-18T09:20:18.071Z,31.39
2018-08-18T09:21:18.060Z,31.29
2018-08-18T09:22:18.049Z,31.34
2018-08-18T09:23:18.039Z,31.41
2018-08-18T09:24:18.026Z,31.66
2018-08-18T09:25:18.017Z,31.62
2018-08-18T09:26:18.019Z,31.35
2018-08-18T09:27:17.996Z,31.12
2018-08-18T09:28:17.984Z,31.46
2018-08-18T09:29:17.974Z,32.00
2018-08-18T09:30:17.966Z,32.04
2018-08-18T09:31:17.952Z,31.62
2018-08-18T09:32:17.941Z,31.01
2018-08-18T09:33:17.934Z,29.92
2018-08-18T09:34:17.923Z,30.31
2018-08-18T09:35:17.912Z,29.78
2018-08-18T09:36:17.921Z,30.07
2018-08-18T09:37:17.889Z,30.80
2018-08-18T09:38:17.879Z,31.47
2018-08-18T09:39:17.870Z,31.78
2018-08-18T09:40:17.858Z,30.72
2018-08-18T09:41:17.849Z,30.47
2018-08-18T09:42:17.843Z,30.46
2018-08-18T09:43:17.828Z,30.77
2018-08-18T09:44:17.818Z,30.84
2018-08-18T09:45:17.827Z,30.91
2018-08-18T09:46:17.803Z,30.49
2018-08-18T09:47:17.789Z,29.95
2018-08-18T09:48:17.778Z,30.61
2018-08-18T09:49:17.770Z,30.84
2018-08-18T09:50:17.759Z,30.64
2018-08-18T09:51:17.750Z,30.35
2018-08-18T09:52:17.740Z,30.22
2018-08-18T09:53:17.730Z,30.86
2018-08-18T09:54:17.721Z,31.06
2018-08-18T09:55:17.717Z,31.01
2018-08-18T09:56:17.701Z,30.99
2018-08-18T09:57:17.691Z,30.49
2018-08-18T09:58:17.684Z,30.34
2018-08-18T09:59:17.705Z,30.43
2018-08-18T10:00:17.662Z,30.20
2018-08-18T10:01:17.652Z,29.41
2018-08-18T10:02:17.644Z,29.49
2018-08-18T10:03:17.635Z,29.55
2018-08-18T10:04:17.624Z,30.58
2018-08-18T10:05:17.614Z,31.34
2018-08-18T10:06:17.632Z,32.08
2018-08-18T10:07:17.594Z,32.65
2018-08-18T10:08:17.582Z,31.95
2018-08-18T10:09:17.573Z,31.76
2018-08-18T10:10:17.564Z,31.99
2018-08-18T10:11:17.555Z,32.10
2018-08-18T10:12:17.544Z,32.45
2018-08-18T10:13:17.534Z,32.82
2018-08-18T10:14:17.524Z,32.32
2018-08-18T10:15:17.570Z,33.11
2018-08-18T10:16:17.505Z,32.14
2018-08-18T10:17:17.496Z,31.47
2018-08-18T10:18:17.488Z,31.14
2018-08-18T10:19:17.478Z,31.02
2018-08-18T10:20:17.467Z,30.51
2018-08-18T10:21:17.458Z,29.85
2018-08-18T10:22:17.450Z,28.74
2018-08-18T10:23:17.440Z,29.00
2018-08-18T10:24:17.429Z,29.94
2018-08-18T10:25:17.420Z,31.16
2018-08-18T10:26:17.410Z,31.69
2018-08-18T10:27:17.418Z,30.95
2018-08-18T10:28:17.392Z,29.86
2018-08-18T10:29:17.379Z,30.29
2018-08-18T10:30:17.369Z,28.27
2018-08-18T10:31:17.359Z,27.51
2018-08-18T10:32:17.349Z,27.13
2018-08-18T10:33:17.380Z,26.85
2018-08-18T10:34:17.329Z,26.55
2018-08-18T10:35:17.317Z,26.15
2018-08-18T10:36:17.306Z,27.51
2018-08-18T10:37:17.294Z,28.66
2018-08-18T10:38:17.284Z,29.18
2018-08-18T10:39:17.276Z,28.44
2018-08-18T10:40:17.263Z,27.39
2018-08-18T10:41:17.249Z,26.85
2018-08-18T10:42:17.241Z,27.28
2018-08-18T10:43:17.253Z,27.24
2018-08-18T10:44:17.214Z,27.55
2018-08-18T10:45:17.202Z,26.70
2018-08-18T10:46:17.190Z,26.55
2018-08-18T10:47:17.182Z,27.79
2018-08-18T10:48:17.165Z,28.18
2018-08-18T10:49:17.154Z,29.00
2018-08-18T10:50:17.143Z,29.49
2018-08-18T10:51:17.138Z,29.74
2018-08-18T10:52:17.118Z,29.87
2018-08-18T10:53:17.105Z,30.23
2018-08-18T10:54:17.094Z,30.92
2018-08-18T10:55:17.082Z,30.10
2018-08-18T10:56:17.070Z,30.38
2018-08-18T10:57:17.058Z,29.58
2018-08-18T10:58:17.049Z,29.30
2018-08-18T10:59:17.037Z,28.55
2018-08-18T11:00:17.025Z,28.24
2018-08-18T11:01:17.013Z,28.06
2018-08-18T11:02:17.000Z,28.00
2018-08-18T11:03:16.990Z,27.27
2018-08-18T11:04:16.977Z,26.75
2018-08-18T11:05:16.965Z,26.82
2018-08-18T11:06:16.953Z,27.92
2018-08-18T11:07:16.946Z,28.90
2018-08-18T11:08:16.927Z,29.90
2018-08-18T11:09:16.916Z,30.61
2018-08-18T11:10:16.903Z,30.11
2018-08-18T11:11:16.891Z,30.16
2018-08-18T11:12:16.883Z,31.14
2018-08-18T11:13:16.867Z,31.58
2018-08-18T11:14:16.855Z,32.14
2018-08-18T11:15:16.844Z,31.19
2018-08-18T11:16:16.830Z,31.13
2018-08-18T11:17:16.819Z,30.95
2018-08-18T11:18:16.808Z,30.61
2018-08-18T11:19:16.797Z,31.02
2018-08-18T11:20:16.783Z,30.86
2018-08-18T11:21:16.772Z,30.38
2018-08-18T11:22:16.761Z,29.82
2018-08-18T11:23:16.751Z,29.95
2018-08-18T11:24:16.737Z,30.23
2018-08-18T11:25:16.726Z,29.94
2018-08-18T11:26:16.714Z,30.16
2018-08-18T11:27:16.703Z,29.79
2018-08-18T11:28:16.719Z,28.88
2018-08-18T11:29:16.679Z,29.28
2018-08-18T11:30:16.667Z,30.02
2018-08-18T11:31:16.656Z,29.49
2018-08-18T11:32:16.642Z,29.37
2018-08-18T11:33:16.635Z,30.10
2018-08-18T11:34:16.619Z,30.64
2018-08-18T11:35:16.669Z,31.14
2018-08-18T11:36:16.596Z,31.10
2018-08-18T11:37:16.583Z,31.38
2018-08-18T11:38:16.572Z,31.65
2018-08-18T11:39:16.560Z,32.07
2018-08-18T11:40:16.549Z,32.00
2018-08-18T11:41:16.538Z,31.76
2018-08-18T11:42:16.530Z,31.41
2018-08-18T11:43:16.517Z,30.23
2018-08-18T11:44:16.535Z,29.70
2018-08-18T11:45:16.493Z,30.70
2018-08-18T11:46:16.482Z,31.41
2018-08-18T11:47:16.467Z,31.61
2018-08-18T11:48:16.456Z,31.88
2018-08-18T11:49:16.445Z,32.07
2018-08-18T11:50:16.433Z,32.15
2018-08-18T11:51:16.429Z,31.54
2018-08-18T11:52:16.408Z,31.12
2018-08-18T11:53:16.398Z,30.82
2018-08-18T11:54:16.387Z,31.07
2018-08-18T11:55:16.374Z,31.36
2018-08-18T11:56:16.363Z,31.34
2018-08-18T11:57:16.352Z,30.89
2018-08-18T11:58:16.339Z,30.67
2018-08-18T11:59:16.328Z,30.91
2018-08-18T12:00:16.316Z,31.12
2018-08-18T12:01:16.305Z,31.84
2018-08-18T12:02:16.293Z,32.29
2018-08-18T12:03:16.281Z,32.57
2018-08-18T12:04:16.268Z,32.75
2018-08-18T12:05:16.258Z,32.94
2018-08-18T12:06:16.246Z,32.70
2018-08-18T12:07:16.236Z,31.48
2018-08-18T12:08:16.223Z,30.99
2018-08-18T12:09:16.210Z,31.34
2018-08-18T12:10:16.199Z,31.68
2018-08-18T12:11:16.189Z,32.10
2018-08-18T12:12:16.175Z,32.37
2018-08-18T12:13:16.165Z,32.82
2018-08-18T12:14:16.155Z,32.37
2018-08-18T12:15:16.140Z,31.92
2018-08-18T12:16:16.130Z,31.80
2018-08-18T12:17:16.117Z,31.93
2018-08-18T12:18:16.105Z,31.47
2018-08-18T12:19:16.094Z,30.97
2018-08-18T12:20:16.083Z,31.39
2018-08-18T12:21:16.070Z,32.10
2018-08-18T12:22:16.058Z,32.26
2018-08-18T12:23:16.047Z,31.54
2018-08-18T12:24:16.035Z,31.75
2018-08-18T12:25:16.023Z,31.95
2018-08-18T12:26:16.014Z,31.46
2018-08-18T12:27:16.002Z,32.21
2018-08-18T12:28:15.991Z,32.79
2018-08-18T12:29:15.982Z,33.00
2018-08-18T12:30:15.966Z,33.56
2018-08-18T12:31:15.960Z,33.68
2018-08-18T12:32:15.947Z,33.60
2018-08-18T12:33:15.932Z,32.94
2018-08-18T12:34:15.921Z,32.00
2018-08-18T12:35:15.911Z,31.51
2018-08-18T12:36:15.928Z,31.70
2018-08-18T12:37:15.985Z,31.34
2018-08-18T12:38:15.879Z,30.60
2018-08-18T12:39:15.867Z,30.82
2018-08-18T12:40:15.854Z,30.07
2018-08-18T12:41:15.844Z,30.67
2018-08-18T12:42:15.833Z,31.46
2018-08-18T12:43:15.821Z,32.13
2018-08-18T12:44:15.809Z,32.04
2018-08-18T12:45:15.798Z,32.28
2018-08-18T12:46:15.787Z,32.57
2018-08-18T12:47:15.777Z,32.84
2018-08-18T12:48:15.763Z,32.84
2018-08-18T12:49:15.753Z,32.94
2018-08-18T12:50:15.855Z,33.60
2018-08-18T12:51:15.731Z,33.18
2018-08-18T12:52:15.719Z,32.78